Flight Track Log - Related Links

Times and Time Zones

All times are in EST time to prevent confusion due to time zone crossing. See the SWA3561 flight status page for this flight to view local times or setup timezone preferences in your user account.

Time Position Orientation Groundspeed Altitude Reporting Facility
EST Latitude Longitude Course Direction KTS MPH feet Rate Location/Type
Mon 11:25:52 PM 32.7428 -117.2175 305° West 163 188 1,200  Level Los Angeles Center
Mon 11:26:54 PM 32.7728 -117.2686 305° West 192 221 3,500 2,293 Climbing Los Angeles Center
Mon 11:27:55 PM 32.8161 -117.3258 312° West 239 275 5,900 3,171 Climbing Los Angeles Center
Mon 11:28:57 PM 32.8650 -117.3944 310° West 266 306 10,000 3,171 Climbing Los Angeles Center
Mon 11:29:58 PM 32.9214 -117.4733 310° West 307 353 12,400 2,488 Climbing Los Angeles Center
Mon 11:31:00 PM 32.9969 -117.5778 311° West 343 395 15,100 2,661 Climbing Los Angeles Center
Mon 11:32:02 PM 33.0606 -117.6678 310° West 352 405 17,900 1,951 Climbing Los Angeles Center
Mon 11:33:03 PM 33.1283 -117.7614 311° West 366 421 19,100 1,951 Climbing Los Angeles Center
Mon 11:34:05 PM 33.1917 -117.8600 308° West 373 429 21,900 2,613 Climbing Los Angeles Center
Mon 11:35:07 PM 33.2283 -117.9806 290° West 380 437 24,500 2,829 Climbing Los Angeles Center
Mon 11:36:08 PM 33.2903 -118.0864 305° West 389 448 27,700 1,707 Climbing Los Angeles Center
Mon 11:37:10 PM 33.3622 -118.1839 311° West 388 447 28,000 146 Climbing Los Angeles Center
Mon 11:38:11 PM 33.4181 -118.2619 311° West 386 444 28,000  Level Los Angeles Center
Mon 11:39:13 PM 33.5169 -118.3981 311° West 384 442 28,000  Level Los Angeles Center
Mon 11:40:15 PM 33.5906 -118.4969 312° West 390 449 28,000  Level Los Angeles Center
Mon 11:41:16 PM 33.6631 -118.5967 311° West 390 449 28,000  Level Los Angeles Center
Mon 11:42:18 PM 33.7356 -118.6956 311° West 391 450 28,000  Level Los Angeles Center
Mon 11:43:19 PM 33.8069 -118.7939 311° West 389 448 28,000  Level Los Angeles Center
Mon 11:44:21 PM 33.8781 -118.8928 311° West 390 449 28,000  Level Los Angeles Center
Mon 11:45:23 PM 33.9481 -118.9889 311° West 383 441 28,000  Level Los Angeles Center
Mon 11:46:24 PM 34.0183 -119.0858 311° West 382 440 28,000  Level Los Angeles Center
Mon 11:47:26 PM 34.0892 -119.1836 311° West 387 445 28,000  Level Los Angeles Center
Mon 11:48:27 PM 34.1594 -119.2831 311° West 389 448 28,000  Level Los Angeles Center
Mon 11:49:29 PM 34.2436 -119.4011 311° West 387 445 28,000  Level Los Angeles Center
Mon 11:50:31 PM 34.3156 -119.5011 311° West 393 452 28,000  Level Los Angeles Center
Mon 11:51:32 PM 34.3856 -119.5994 311° West 387 445 28,000  Level Los Angeles Center
Mon 11:52:34 PM 34.4564 -119.6983 311° West 388 447 28,000  Level Los Angeles Center
Mon 11:53:35 PM 34.5131 -119.7769 311° West 386 444 28,000  Level Los Angeles Center
Mon 11:54:36 PM 34.6122 -119.8558 327° Northwest 391 450 28,000  Level Los Angeles Center
Mon 11:55:38 PM 34.7183 -119.9444 326° Northwest 387 445 28,000  Level Los Angeles Center
Mon 11:56:40 PM 34.8056 -120.0172 326° Northwest 382 440 28,000  Level Los Angeles Center
Mon 11:57:41 PM 34.8942 -120.0892 326° Northwest 383 441 28,000  Level Los Angeles Center
Mon 11:58:43 PM 34.9889 -120.1678 326° Northwest 380 437 28,000  Level Los Angeles Center
Mon 11:59:44 PM 35.0744 -120.2392 326° Northwest 376 433 28,000  Level Los Angeles Center
Tue 12:00:46 AM 35.1597 -120.3100 326° Northwest 374 430 28,000  Level Los Angeles Center
Tue 12:01:47 AM 35.2450 -120.3825 325° Northwest 375 432 28,000  Level Los Angeles Center
Tue 12:02:49 AM 35.3306 -120.4556 325° Northwest 377 434 28,000  Level Los Angeles Center
Tue 12:03:50 AM 35.4183 -120.5303 325° Northwest 386 444 28,000  Level Los Angeles Center
Tue 12:04:51 AM 35.5206 -120.6156 326° Northwest 377 434 28,000  Level Los Angeles Center
Tue 12:05:53 AM 35.6064 -120.6883 325° Northwest 374 430 28,000  Level Los Angeles Center
Tue 12:06:54 AM 35.6953 -120.7650 325° Northwest 380 437 28,000  Level Los Angeles Center
Tue 12:07:56 AM 35.7819 -120.8381 326° Northwest 378 435 28,000  Level Los Angeles Center
Tue 12:08:57 AM 35.8669 -120.9111 325° Northwest 376 433 28,000  Level Los Angeles Center
Tue 12:09:59 AM 35.9522 -120.9842 325° Northwest 374 430 28,000  Level Los Angeles Center
Tue 12:11:09 AM 36.0550 -121.0728 325° Northwest 374 430 28,000 -92 Level Oakland Center
Tue 12:12:10 AM 36.1408 -121.1461 325° Northwest 376 433 27,800 -1,033 Descending Oakland Center
Tue 12:13:11 AM 36.2211 -121.2156 325° Northwest 356 410 25,900 -1,869 Descending Oakland Center
Tue 12:14:12 AM 36.2981 -121.2817 325° Northwest 340 391 24,000 -1,869 Descending Oakland Center
Tue 12:15:13 AM 36.3806 -121.3303 335° Northwest 329 379 22,100 -2,066 Descending Oakland Center
Tue 12:16:14 AM 36.4669 -121.3708 339° North 330 380 19,800 -2,213 Descending Oakland Center
Tue 12:17:15 AM 36.5683 -121.4200 339° North 326 375 17,600 -1,967 Descending Oakland Center
Tue 12:18:16 AM 36.6500 -121.4608 338° Northwest 318 366 15,800 -1,721 Descending Oakland Center
Tue 12:19:17 AM 36.7272 -121.4994 338° Northwest 301 346 14,100 -1,721 Descending Oakland Center
Tue 12:20:18 AM 36.8033 -121.5358 339° North 295 339 12,300 -1,525 Descending Oakland Center
Tue 12:21:19 AM 36.8758 -121.5747 337° Northwest 283 326 11,000 -1,279 Descending Oakland Center
Tue 12:22:20 AM 36.9425 -121.6069 339° North 263 303 9,700 -1,328 Descending Oakland Center
Tue 12:23:21 AM 37.0069 -121.6400 338° Northwest 254 292 8,300 -1,328 Descending Oakland Center
Tue 12:24:22 AM 37.0714 -121.6714 339° North 251 289 7,000 -934 Descending Oakland Center
Tue 12:25:23 AM 37.1278 -121.6969 340° North 234 269 6,400 -1,240 Descending Oakland Center
Tue 12:26:23 AM 37.1858 -121.7322 334° Northwest 221 254 4,500 -1,525 Descending Oakland Center
Tue 12:27:25 AM 37.2286 -121.7850 316° Northwest 218 251 3,300 -984 Descending Oakland Center
Tue 12:28:25 AM 37.2600 -121.8194 319° Northwest 178 205 2,500 -744 Descending Oakland Center
Tue 12:29:26 AM 37.2881 -121.8536 316° Northwest 153 176 1,800 -689 Descending Oakland Center
Tue 12:30:27 AM 37.3150 -121.8819 320° Northwest 140 161 1,100 -738 Descending Oakland Center
Tue 12:31:28 AM 37.3481 -121.9161 321° Northwest 131 151 300 -787 Descending Oakland Center
Tue 12:33:00 AM 37.3500 -121.9167 North  Level FlightAware Approximate

Login

Don't have an account? Register now (free) for customized features, flight alerts, and more!